KAOO

Altoona-Blair County Airport

Altoona, Pennsylvania, USA
METAR KAOO 170353Z AUTO 25009KT 10SM CLR 07/02 A3009 RMK AO2 SLP195 T00720017
Observed Flight Rules
Oct-17 @ 03:53 UTC (an hour ago) Visual Flight Rules
Wind Visibility Clouds
250° at 9 knots 10 miles
  • Clear skies
Temperatures Readings
Current 7°C / 45°F
Dewpoint 2°C / 36°F
Humidity 71%
Altimeter 30.09" Hg
Pressure 1019.5 hPa
Elevation 455
METAR KAOO 170353Z AUTO 25009KT 10SM CLR 07/02 A3009 RMK AO2 SLP195 T00720017
Observed Flight Rules
Oct-17 @ 03:53 UTC
(an hour ago)
VFR
Wind Visibility
250° at 9 knots 10 miles
Clouds
  • Clear skies
Temperature Dewpoint
7°C / 45°F 2°C / 36°F
Humidity Altimeter Pressure
71% 30.09" Hg 1019.5 hPa